sensor_id;sensor_type;location;lat;lon;timestamp;pressure;altitude;pressure_sealevel;temperature;humidity
28167;BME280;15455;53.376;-6.262;2023-08-07T00:00:25;102036.75;;;10.18;100.00
28167;BME280;15455;53.376;-6.262;2023-08-07T00:03:10;102039.41;;;10.21;100.00
28167;BME280;15455;53.376;-6.262;2023-08-07T00:05:56;102026.38;;;10.23;100.00
28167;BME280;15455;53.376;-6.262;2023-08-07T00:08:42;102030.78;;;10.25;100.00
28167;BME280;15455;53.376;-6.262;2023-08-07T00:11:27;102031.72;;;10.29;100.00
28167;BME280;15455;53.376;-6.262;2023-08-07T00:14:13;102032.66;;;10.33;100.00
28167;BME280;15455;53.376;-6.262;2023-08-07T00:16:59;102032.75;;;10.36;100.00
28167;BME280;15455;53.376;-6.262;2023-08-07T00:19:44;102023.22;;;10.38;100.00
28167;BME280;15455;53.376;-6.262;2023-08-07T00:22:30;102029.38;;;10.40;100.00
28167;BME280;15455;53.376;-6.262;2023-08-07T00:25:15;102024.16;;;10.40;100.00
28167;BME280;15455;53.376;-6.262;2023-08-07T00:28:01;102024.16;;;10.41;100.00
28167;BME280;15455;53.376;-6.262;2023-08-07T00:30:47;102021.53;;;10.40;100.00
28167;BME280;15455;53.376;-6.262;2023-08-07T00:33:32;102022.38;;;10.39;100.00
28167;BME280;15455;53.376;-6.262;2023-08-07T00:36:18;102025.00;;;10.39;100.00
28167;BME280;15455;53.376;-6.262;2023-08-07T00:39:03;102024.19;;;10.43;100.00
28167;BME280;15455;53.376;-6.262;2023-08-07T00:41:49;102010.28;;;10.44;100.00
28167;BME280;15455;53.376;-6.262;2023-08-07T00:44:34;102009.47;;;10.47;100.00
28167;BME280;15455;53.376;-6.262;2023-08-07T00:47:20;102012.97;;;10.47;100.00
28167;BME280;15455;53.376;-6.262;2023-08-07T00:50:07;102007.69;;;10.46;100.00
28167;BME280;15455;53.376;-6.262;2023-08-07T00:52:53;102004.25;;;10.47;100.00
28167;BME280;15455;53.376;-6.262;2023-08-07T00:55:38;102009.47;;;10.47;100.00
28167;BME280;15455;53.376;-6.262;2023-08-07T00:58:24;101997.16;;;10.39;100.00
28167;BME280;15455;53.376;-6.262;2023-08-07T01:01:10;102004.84;;;10.33;100.00
28167;BME280;15455;53.376;-6.262;2023-08-07T01:03:56;101994.28;;;10.27;100.00
28167;BME280;15455;53.376;-6.262;2023-08-07T01:06:41;101989.72;;;10.17;100.00
28167;BME280;15455;53.376;-6.262;2023-08-07T01:09:27;101996.47;;;10.04;100.00
28167;BME280;15455;53.376;-6.262;2023-08-07T01:12:20;102001.38;;;9.90;100.00
28167;BME280;15455;53.376;-6.262;2023-08-07T01:15:11;102003.69;;;9.76;100.00
28167;BME280;15455;53.376;-6.262;2023-08-07T01:17:58;102003.34;;;9.59;100.00
28167;BME280;15455;53.376;-6.262;2023-08-07T01:20:45;101999.63;;;9.48;100.00
28167;BME280;15455;53.376;-6.262;2023-08-07T01:23:31;102009.97;;;9.45;100.00
28167;BME280;15455;53.376;-6.262;2023-08-07T01:26:19;102003.78;;;9.39;100.00
28167;BME280;15455;53.376;-6.262;2023-08-07T01:29:21;102001.88;;;9.32;100.00
28167;BME280;15455;53.376;-6.262;2023-08-07T01:32:11;101998.13;;;9.21;100.00
28167;BME280;15455;53.376;-6.262;2023-08-07T01:35:01;101994.34;;;9.08;100.00
28167;BME280;15455;53.376;-6.262;2023-08-07T01:37:48;101998.75;;;9.11;100.00
28167;BME280;15455;53.376;-6.262;2023-08-07T01:40:36;102004.84;;;9.11;100.00
28167;BME280;15455;53.376;-6.262;2023-08-07T01:43:23;102004.88;;;9.13;100.00
28167;BME280;15455;53.376;-6.262;2023-08-07T01:46:10;102007.44;;;9.11;100.00
28167;BME280;15455;53.376;-6.262;2023-08-07T01:48:56;102003.97;;;9.11;100.00
28167;BME280;15455;53.376;-6.262;2023-08-07T01:51:41;102003.91;;;9.08;100.00
28167;BME280;15455;53.376;-6.262;2023-08-07T01:54:27;102002.09;;;9.05;100.00
28167;BME280;15455;53.376;-6.262;2023-08-07T01:57:12;101999.50;;;9.05;100.00
28167;BME280;15455;53.376;-6.262;2023-08-07T01:59:58;102004.72;;;9.05;100.00
28167;BME280;15455;53.376;-6.262;2023-08-07T02:02:44;101997.75;;;9.06;100.00
28167;BME280;15455;53.376;-6.262;2023-08-07T02:05:32;101996.78;;;9.00;100.00
28167;BME280;15455;53.376;-6.262;2023-08-07T02:08:19;101987.03;;;8.92;100.00
28167;BME280;15455;53.376;-6.262;2023-08-07T02:11:05;101981.59;;;8.82;100.00
28167;BME280;15455;53.376;-6.262;2023-08-07T02:13:50;101971.09;;;8.79;100.00
28167;BME280;15455;53.376;-6.262;2023-08-07T02:16:36;101978.03;;;8.79;100.00
28167;BME280;15455;53.376;-6.262;2023-08-07T02:19:21;101975.41;;;8.77;100.00
28167;BME280;15455;53.376;-6.262;2023-08-07T02:22:07;101978.06;;;8.80;100.00
28167;BME280;15455;53.376;-6.262;2023-08-07T02:24:52;101974.63;;;8.81;100.00
28167;BME280;15455;53.376;-6.262;2023-08-07T02:27:38;101981.50;;;8.79;100.00
28167;BME280;15455;53.376;-6.262;2023-08-07T02:30:24;101977.13;;;8.77;100.00
28167;BME280;15455;53.376;-6.262;2023-08-07T02:33:09;101974.44;;;8.74;100.00
28167;BME280;15455;53.376;-6.262;2023-08-07T02:35:54;101967.44;;;8.71;100.00
28167;BME280;15455;53.376;-6.262;2023-08-07T02:38:40;101969.91;;;8.66;100.00
28167;BME280;15455;53.376;-6.262;2023-08-07T02:41:25;101963.03;;;8.68;100.00
28167;BME280;15455;53.376;-6.262;2023-08-07T02:44:11;101962.06;;;8.65;100.00
28167;BME280;15455;53.376;-6.262;2023-08-07T02:46:57;101950.72;;;8.61;100.00
28167;BME280;15455;53.376;-6.262;2023-08-07T02:49:42;101941.00;;;8.54;100.00
28167;BME280;15455;53.376;-6.262;2023-08-07T02:52:28;101944.31;;;8.48;100.00
28167;BME280;15455;53.376;-6.262;2023-08-07T02:55:13;101944.09;;;8.41;100.00
28167;BME280;15455;53.376;-6.262;2023-08-07T02:57:59;101949.19;;;8.38;100.00
28167;BME280;15455;53.376;-6.262;2023-08-07T03:00:45;101955.25;;;8.37;100.00
28167;BME280;15455;53.376;-6.262;2023-08-07T03:03:30;101956.22;;;8.40;100.00
28167;BME280;15455;53.376;-6.262;2023-08-07T03:06:15;101970.94;;;8.40;100.00
28167;BME280;15455;53.376;-6.262;2023-08-07T03:09:03;101972.69;;;8.39;100.00
28167;BME280;15455;53.376;-6.262;2023-08-07T03:11:49;101977.91;;;8.41;100.00
28167;BME280;15455;53.376;-6.262;2023-08-07T03:14:34;101971.09;;;8.44;100.00
28167;BME280;15455;53.376;-6.262;2023-08-07T03:17:20;101980.81;;;8.51;100.00
28167;BME280;15455;53.376;-6.262;2023-08-07T03:20:06;101979.22;;;8.57;100.00
28167;BME280;15455;53.376;-6.262;2023-08-07T03:22:52;101974.97;;;8.60;100.00
28167;BME280;15455;53.376;-6.262;2023-08-07T03:25:37;101977.81;;;8.69;100.00
28167;BME280;15455;53.376;-6.262;2023-08-07T03:28:23;101979.78;;;8.78;100.00
28167;BME280;15455;53.376;-6.262;2023-08-07T03:31:09;101987.75;;;8.86;100.00
28167;BME280;15455;53.376;-6.262;2023-08-07T03:33:55;101980.97;;;8.91;100.00
28167;BME280;15455;53.376;-6.262;2023-08-07T03:36:41;101979.25;;;8.93;100.00
28167;BME280;15455;53.376;-6.262;2023-08-07T03:39:26;101974.88;;;8.92;100.00
28167;BME280;15455;53.376;-6.262;2023-08-07T03:42:11;101975.78;;;8.93;100.00
28167;BME280;15455;53.376;-6.262;2023-08-07T03:44:57;101972.25;;;8.91;100.00
28167;BME280;15455;53.376;-6.262;2023-08-07T03:47:43;101969.59;;;8.89;100.00
28167;BME280;15455;53.376;-6.262;2023-08-07T03:50:28;101959.16;;;8.88;100.00
28167;BME280;15455;53.376;-6.262;2023-08-07T03:53:15;101960.84;;;8.85;100.00
28167;BME280;15455;53.376;-6.262;2023-08-07T03:56:03;101953.00;;;8.84;100.00
28167;BME280;15455;53.376;-6.262;2023-08-07T03:58:50;101954.69;;;8.82;100.00
28167;BME280;15455;53.376;-6.262;2023-08-07T04:01:38;101946.72;;;8.76;100.00
28167;BME280;15455;53.376;-6.262;2023-08-07T04:04:23;101940.53;;;8.71;100.00
28167;BME280;15455;53.376;-6.262;2023-08-07T04:07:09;101943.03;;;8.66;100.00
28167;BME280;15455;53.376;-6.262;2023-08-07T04:09:54;101959.53;;;8.68;100.00
28167;BME280;15455;53.376;-6.262;2023-08-07T04:12:40;101956.25;;;8.75;100.00
28167;BME280;15455;53.376;-6.262;2023-08-07T04:15:25;101950.28;;;8.79;100.00
28167;BME280;15455;53.376;-6.262;2023-08-07T04:18:12;101953.88;;;8.84;100.00
28167;BME280;15455;53.376;-6.262;2023-08-07T04:20:58;101952.22;;;8.88;100.00
28167;BME280;15455;53.376;-6.262;2023-08-07T04:23:43;101949.78;;;8.94;100.00
28167;BME280;15455;53.376;-6.262;2023-08-07T04:26:29;101955.13;;;9.00;100.00
28167;BME280;15455;53.376;-6.262;2023-08-07T04:29:15;101955.19;;;9.03;100.00
28167;BME280;15455;53.376;-6.262;2023-08-07T04:32:00;101956.22;;;9.10;100.00
28167;BME280;15455;53.376;-6.262;2023-08-07T04:34:46;101966.69;;;9.12;100.00
28167;BME280;15455;53.376;-6.262;2023-08-07T04:37:31;101973.72;;;9.16;100.00
28167;BME280;15455;53.376;-6.262;2023-08-07T04:40:17;101967.84;;;9.25;100.00
28167;BME280;15455;53.376;-6.262;2023-08-07T04:43:02;101972.31;;;9.30;100.00
28167;BME280;15455;53.376;-6.262;2023-08-07T04:45:49;101969.03;;;9.39;100.00
28167;BME280;15455;53.376;-6.262;2023-08-07T04:48:35;101974.34;;;9.44;100.00
28167;BME280;15455;53.376;-6.262;2023-08-07T04:51:20;101972.78;;;9.52;100.00
28167;BME280;15455;53.376;-6.262;2023-08-07T04:54:06;101972.91;;;9.58;100.00
28167;BME280;15455;53.376;-6.262;2023-08-07T04:56:51;101968.59;;;9.60;100.00
28167;BME280;15455;53.376;-6.262;2023-08-07T04:59:38;101967.75;;;9.61;100.00
28167;BME280;15455;53.376;-6.262;2023-08-07T05:02:23;101970.44;;;9.64;100.00
28167;BME280;15455;53.376;-6.262;2023-08-07T05:05:09;101966.19;;;9.68;100.00
28167;BME280;15455;53.376;-6.262;2023-08-07T05:07:55;101960.13;;;9.70;100.00
28167;BME280;15455;53.376;-6.262;2023-08-07T05:10:41;101967.16;;;9.74;100.00
28167;BME280;15455;53.376;-6.262;2023-08-07T05:13:26;101960.31;;;9.80;100.00
28167;BME280;15455;53.376;-6.262;2023-08-07T05:16:11;101971.69;;;9.83;100.00
28167;BME280;15455;53.376;-6.262;2023-08-07T05:18:57;101973.56;;;9.90;100.00
28167;BME280;15455;53.376;-6.262;2023-08-07T05:21:42;101964.09;;;9.94;100.00
28167;BME280;15455;53.376;-6.262;2023-08-07T05:24:28;101957.16;;;9.96;100.00
28167;BME280;15455;53.376;-6.262;2023-08-07T05:27:14;101950.31;;;10.01;100.00
28167;BME280;15455;53.376;-6.262;2023-08-07T05:30:00;101949.53;;;10.05;100.00
28167;BME280;15455;53.376;-6.262;2023-08-07T05:32:46;101949.59;;;10.08;100.00
28167;BME280;15455;53.376;-6.262;2023-08-07T05:35:31;101949.66;;;10.12;100.00
28167;BME280;15455;53.376;-6.262;2023-08-07T05:38:16;101955.75;;;10.14;100.00
28167;BME280;15455;53.376;-6.262;2023-08-07T05:41:02;101956.69;;;10.16;100.00
28167;BME280;15455;53.376;-6.262;2023-08-07T05:43:48;101958.47;;;10.18;100.00
28167;BME280;15455;53.376;-6.262;2023-08-07T05:46:34;101960.28;;;10.24;100.00
28167;BME280;15455;53.376;-6.262;2023-08-07T05:49:19;101953.44;;;10.29;100.00
28167;BME280;15455;53.376;-6.262;2023-08-07T05:52:08;101952.72;;;10.36;100.00
28167;BME280;15455;53.376;-6.262;2023-08-07T05:54:54;101951.97;;;10.42;100.00
28167;BME280;15455;53.376;-6.262;2023-08-07T05:57:39;101946.88;;;10.50;100.00
28167;BME280;15455;53.376;-6.262;2023-08-07T06:00:25;101954.88;;;10.59;100.00
28167;BME280;15455;53.376;-6.262;2023-08-07T06:03:10;101953.25;;;10.67;100.00
28167;BME280;15455;53.376;-6.262;2023-08-07T06:05:56;101942.06;;;10.76;100.00
28167;BME280;15455;53.376;-6.262;2023-08-07T06:08:41;101943.94;;;10.83;100.00
28167;BME280;15455;53.376;-6.262;2023-08-07T06:11:26;101937.06;;;10.90;100.00
28167;BME280;15455;53.376;-6.262;2023-08-07T06:14:13;101934.56;;;10.96;100.00
28167;BME280;15455;53.376;-6.262;2023-08-07T06:17:01;101930.31;;;11.04;100.00
28167;BME280;15455;53.376;-6.262;2023-08-07T06:19:47;101935.66;;;11.13;100.00
28167;BME280;15455;53.376;-6.262;2023-08-07T06:22:33;101920.94;;;11.19;100.00
28167;BME280;15455;53.376;-6.262;2023-08-07T06:25:18;101927.16;;;11.25;100.00
28167;BME280;15455;53.376;-6.262;2023-08-07T06:28:04;101923.75;;;11.33;100.00
28167;BME280;15455;53.376;-6.262;2023-08-07T06:30:49;101920.38;;;11.40;100.00
28167;BME280;15455;53.376;-6.262;2023-08-07T06:33:35;101916.06;;;11.45;100.00
28167;BME280;15455;53.376;-6.262;2023-08-07T06:36:21;101917.91;;;11.52;100.00
28167;BME280;15455;53.376;-6.262;2023-08-07T06:39:07;101923.22;;;11.58;100.00
28167;BME280;15455;53.376;-6.262;2023-08-07T06:41:52;101925.91;;;11.63;100.00
28167;BME280;15455;53.376;-6.262;2023-08-07T06:44:44;101914.66;;;11.70;100.00
28167;BME280;15455;53.376;-6.262;2023-08-07T06:47:30;101904.25;;;11.76;100.00
28167;BME280;15455;53.376;-6.262;2023-08-07T06:50:16;101906.06;;;11.84;100.00
28167;BME280;15455;53.376;-6.262;2023-08-07T06:53:01;101900.91;;;11.91;100.00
28167;BME280;15455;53.376;-6.262;2023-08-07T06:55:47;101902.75;;;11.97;100.00
28167;BME280;15455;53.376;-6.262;2023-08-07T06:58:33;101895.00;;;12.05;100.00
28167;BME280;15455;53.376;-6.262;2023-08-07T07:01:18;101894.22;;;12.13;100.00
28167;BME280;15455;53.376;-6.262;2023-08-07T07:04:04;101892.47;;;12.17;100.00
28167;BME280;15455;53.376;-6.262;2023-08-07T07:06:49;101899.50;;;12.20;100.00
28167;BME280;15455;53.376;-6.262;2023-08-07T07:09:35;101898.63;;;12.21;100.00
28167;BME280;15455;53.376;-6.262;2023-08-07T07:12:20;101901.31;;;12.27;100.00
28167;BME280;15455;53.376;-6.262;2023-08-07T07:15:06;101902.19;;;12.30;100.00
28167;BME280;15455;53.376;-6.262;2023-08-07T07:17:51;101903.13;;;12.34;100.00
28167;BME280;15455;53.376;-6.262;2023-08-07T07:20:37;101898.84;;;12.44;100.00
28167;BME280;15455;53.376;-6.262;2023-08-07T07:23:22;101892.81;;;12.54;100.00
28167;BME280;15455;53.376;-6.262;2023-08-07T07:26:08;101888.47;;;12.61;100.00
28167;BME280;15455;53.376;-6.262;2023-08-07T07:28:54;101875.44;;;12.64;100.00
28167;BME280;15455;53.376;-6.262;2023-08-07T07:31:40;101876.31;;;12.69;100.00
28167;BME280;15455;53.376;-6.262;2023-08-07T07:34:26;101879.88;;;12.77;100.00
28167;BME280;15455;53.376;-6.262;2023-08-07T07:37:12;101886.00;;;12.84;100.00
28167;BME280;15455;53.376;-6.262;2023-08-07T07:39:59;101882.63;;;12.94;100.00
28167;BME280;15455;53.376;-6.262;2023-08-07T07:42:44;101886.16;;;13.06;100.00
28167;BME280;15455;53.376;-6.262;2023-08-07T07:45:30;101880.94;;;13.07;100.00
28167;BME280;15455;53.376;-6.262;2023-08-07T07:48:15;101867.84;;;13.10;100.00
28167;BME280;15455;53.376;-6.262;2023-08-07T07:51:02;101871.34;;;13.18;100.00
28167;BME280;15455;53.376;-6.262;2023-08-07T07:53:48;101874.03;;;13.28;100.00
28167;BME280;15455;53.376;-6.262;2023-08-07T07:56:53;101860.94;;;13.32;100.00
28167;BME280;15455;53.376;-6.262;2023-08-07T07:59:39;101868.88;;;13.40;100.00
28167;BME280;15455;53.376;-6.262;2023-08-07T08:02:25;101858.41;;;13.45;100.00
28167;BME280;15455;53.376;-6.262;2023-08-07T08:05:11;101867.16;;;13.51;100.00
28167;BME280;15455;53.376;-6.262;2023-08-07T08:07:57;101859.28;;;13.51;100.00
28167;BME280;15455;53.376;-6.262;2023-08-07T08:10:44;101861.97;;;13.62;100.00
28167;BME280;15455;53.376;-6.262;2023-08-07T08:13:29;101857.59;;;13.70;100.00
28167;BME280;15455;53.376;-6.262;2023-08-07T08:16:15;101851.47;;;13.73;100.00
28167;BME280;15455;53.376;-6.262;2023-08-07T08:19:00;101847.94;;;13.62;100.00
28167;BME280;15455;53.376;-6.262;2023-08-07T08:21:47;101848.00;;;13.68;100.00
28167;BME280;15455;53.376;-6.262;2023-08-07T08:24:32;101852.38;;;13.81;100.00
28167;BME280;15455;53.376;-6.262;2023-08-07T08:27:18;101838.41;;;13.88;100.00
28167;BME280;15455;53.376;-6.262;2023-08-07T08:30:04;101828.78;;;14.00;100.00
28167;BME280;15455;53.376;-6.262;2023-08-07T08:32:50;101824.41;;;14.03;100.00
28167;BME280;15455;53.376;-6.262;2023-08-07T08:35:35;101824.44;;;14.14;100.00
28167;BME280;15455;53.376;-6.262;2023-08-07T08:38:21;101820.03;;;14.15;100.00
28167;BME280;15455;53.376;-6.262;2023-08-07T08:41:08;101820.06;;;14.27;100.00
28167;BME280;15455;53.376;-6.262;2023-08-07T08:43:54;101821.78;;;14.39;100.00
28167;BME280;15455;53.376;-6.262;2023-08-07T08:46:42;101820.03;;;14.39;100.00
28167;BME280;15455;53.376;-6.262;2023-08-07T08:49:33;101809.50;;;14.42;100.00
28167;BME280;15455;53.376;-6.262;2023-08-07T08:52:21;101806.88;;;14.56;100.00
28167;BME280;15455;53.376;-6.262;2023-08-07T08:55:07;101806.00;;;14.70;100.00
28167;BME280;15455;53.376;-6.262;2023-08-07T08:57:53;101813.81;;;14.90;100.00
28167;BME280;15455;53.376;-6.262;2023-08-07T09:00:40;101801.50;;;15.03;100.00
28167;BME280;15455;53.376;-6.262;2023-08-07T09:03:27;101798.88;;;15.06;100.00
28167;BME280;15455;53.376;-6.262;2023-08-07T09:06:13;101787.47;;;15.07;100.00
28167;BME280;15455;53.376;-6.262;2023-08-07T09:08:59;101791.81;;;15.17;100.00
28167;BME280;15455;53.376;-6.262;2023-08-07T09:11:45;101788.28;;;15.23;100.00
28167;BME280;15455;53.376;-6.262;2023-08-07T09:14:33;101780.38;;;15.23;100.00
28167;BME280;15455;53.376;-6.262;2023-08-07T09:17:28;101783.88;;;15.25;100.00
28167;BME280;15455;53.376;-6.262;2023-08-07T09:20:14;101783.81;;;15.37;100.00
28167;BME280;15455;53.376;-6.262;2023-08-07T09:23:00;101775.88;;;15.42;100.00
28167;BME280;15455;53.376;-6.262;2023-08-07T09:25:45;101780.19;;;15.55;100.00
28167;BME280;15455;53.376;-6.262;2023-08-07T09:28:32;101780.16;;;15.61;100.00
28167;BME280;15455;53.376;-6.262;2023-08-07T09:31:18;101780.94;;;15.76;100.00
28167;BME280;15455;53.376;-6.262;2023-08-07T09:34:05;101776.50;;;15.83;100.00
28167;BME280;15455;53.376;-6.262;2023-08-07T09:36:51;101776.50;;;15.84;100.00
28167;BME280;15455;53.376;-6.262;2023-08-07T09:39:37;101773.00;;;15.85;100.00
28167;BME280;15455;53.376;-6.262;2023-08-07T09:42:23;101771.34;;;15.67;100.00
28167;BME280;15455;53.376;-6.262;2023-08-07T09:48:05;101769.59;;;15.65;100.00
28167;BME280;15455;53.376;-6.262;2023-08-07T09:50:53;101773.03;;;15.77;100.00
28167;BME280;15455;53.376;-6.262;2023-08-07T09:53:39;101764.31;;;15.69;100.00
28167;BME280;15455;53.376;-6.262;2023-08-07T09:56:24;101763.50;;;15.58;100.00
28167;BME280;15455;53.376;-6.262;2023-08-07T09:59:10;101759.00;;;15.72;100.00
28167;BME280;15455;53.376;-6.262;2023-08-07T10:01:56;101758.03;;;15.92;100.00
28167;BME280;15455;53.376;-6.262;2023-08-07T10:04:42;101764.94;;;16.05;100.00
28167;BME280;15455;53.376;-6.262;2023-08-07T10:07:27;101752.59;;;16.12;100.00
28167;BME280;15455;53.376;-6.262;2023-08-07T10:10:14;101763.00;;;16.23;100.00
28167;BME280;15455;53.376;-6.262;2023-08-07T10:13:03;101749.78;;;16.27;100.00
28167;BME280;15455;53.376;-6.262;2023-08-07T10:15:49;101753.09;;;16.46;100.00
28167;BME280;15455;53.376;-6.262;2023-08-07T10:18:36;101745.03;;;16.62;100.00
28167;BME280;15455;53.376;-6.262;2023-08-07T10:21:23;101749.22;;;16.77;100.00
28167;BME280;15455;53.376;-6.262;2023-08-07T10:24:10;101737.75;;;16.81;100.00
28167;BME280;15455;53.376;-6.262;2023-08-07T10:26:57;101739.69;;;16.66;100.00
28167;BME280;15455;53.376;-6.262;2023-08-07T10:29:46;101737.97;;;16.62;100.00
28167;BME280;15455;53.376;-6.262;2023-08-07T10:32:33;101739.56;;;16.77;100.00
28167;BME280;15455;53.376;-6.262;2023-08-07T10:35:29;101742.03;;;16.93;100.00
28167;BME280;15455;53.376;-6.262;2023-08-07T10:38:19;101740.19;;;16.99;100.00
28167;BME280;15455;53.376;-6.262;2023-08-07T10:41:06;101736.78;;;16.90;100.00
28167;BME280;15455;53.376;-6.262;2023-08-07T10:43:52;101730.81;;;16.74;100.00
28167;BME280;15455;53.376;-6.262;2023-08-07T10:46:59;101734.41;;;16.66;100.00
28167;BME280;15455;53.376;-6.262;2023-08-07T10:49:46;101728.41;;;16.55;100.00
28167;BME280;15455;53.376;-6.262;2023-08-07T10:52:32;101724.00;;;16.57;100.00
28167;BME280;15455;53.376;-6.262;2023-08-07T10:55:17;101723.91;;;16.63;100.00
28167;BME280;15455;53.376;-6.262;2023-08-07T10:58:03;101727.41;;;16.65;100.00
28167;BME280;15455;53.376;-6.262;2023-08-07T11:00:49;101729.38;;;16.49;100.00
28167;BME280;15455;53.376;-6.262;2023-08-07T11:03:35;101733.88;;;16.38;100.00
28167;BME280;15455;53.376;-6.262;2023-08-07T11:06:23;101732.22;;;16.28;100.00
28167;BME280;15455;53.376;-6.262;2023-08-07T11:09:10;101737.59;;;16.17;100.00
28167;BME280;15455;53.376;-6.262;2023-08-07T11:11:55;101733.31;;;16.05;100.00
28167;BME280;15455;53.376;-6.262;2023-08-07T11:14:41;101736.94;;;15.93;100.00
28167;BME280;15455;53.376;-6.262;2023-08-07T11:17:29;101733.53;;;15.80;100.00
28167;BME280;15455;53.376;-6.262;2023-08-07T11:20:15;101734.44;;;15.73;100.00
28167;BME280;15455;53.376;-6.262;2023-08-07T11:23:01;101729.13;;;15.78;100.00
28167;BME280;15455;53.376;-6.262;2023-08-07T11:25:46;101727.47;;;15.68;100.00
28167;BME280;15455;53.376;-6.262;2023-08-07T11:28:32;101725.69;;;15.70;100.00
28167;BME280;15455;53.376;-6.262;2023-08-07T11:31:18;101717.75;;;15.82;100.00
28167;BME280;15455;53.376;-6.262;2023-08-07T11:34:04;101712.25;;;16.07;100.00
28167;BME280;15455;53.376;-6.262;2023-08-07T11:36:50;101712.00;;;16.30;100.00
28167;BME280;15455;53.376;-6.262;2023-08-07T11:39:42;101705.66;;;16.46;100.00
28167;BME280;15455;53.376;-6.262;2023-08-07T11:42:28;101695.03;;;16.54;100.00
28167;BME280;15455;53.376;-6.262;2023-08-07T11:45:13;101691.22;;;16.80;100.00
28167;BME280;15455;53.376;-6.262;2023-08-07T11:47:59;101689.19;;;17.00;100.00
28167;BME280;15455;53.376;-6.262;2023-08-07T11:50:44;101678.41;;;17.17;100.00
28167;BME280;15455;53.376;-6.262;2023-08-07T11:53:32;101675.78;;;17.17;100.00
28167;BME280;15455;53.376;-6.262;2023-08-07T11:56:18;101668.53;;;17.30;100.00
28167;BME280;15455;53.376;-6.262;2023-08-07T11:59:04;101670.81;;;17.52;100.00
28167;BME280;15455;53.376;-6.262;2023-08-07T12:01:51;101660.81;;;17.73;100.00
28167;BME280;15455;53.376;-6.262;2023-08-07T12:04:38;101671.00;;;17.94;100.00
28167;BME280;15455;53.376;-6.262;2023-08-07T12:07:24;101663.03;;;17.97;100.00
28167;BME280;15455;53.376;-6.262;2023-08-07T12:10:13;101650.28;;;17.71;100.00
28167;BME280;15455;53.376;-6.262;2023-08-07T12:12:59;101657.81;;;17.94;100.00
28167;BME280;15455;53.376;-6.262;2023-08-07T12:15:54;101650.03;;;18.32;100.00
28167;BME280;15455;53.376;-6.262;2023-08-07T12:18:40;101654.06;;;18.50;100.00
28167;BME280;15455;53.376;-6.262;2023-08-07T12:21:25;101651.34;;;18.53;100.00
28167;BME280;15455;53.376;-6.262;2023-08-07T12:24:12;101655.72;;;18.54;100.00
28167;BME280;15455;53.376;-6.262;2023-08-07T12:26:59;101643.47;;;18.50;100.00
28167;BME280;15455;53.376;-6.262;2023-08-07T12:29:45;101641.00;;;18.42;100.00
28167;BME280;15455;53.376;-6.262;2023-08-07T12:32:30;101648.97;;;18.40;100.00
28167;BME280;15455;53.376;-6.262;2023-08-07T12:35:16;101641.09;;;18.37;100.00
28167;BME280;15455;53.376;-6.262;2023-08-07T12:38:02;101633.94;;;18.43;100.00
28167;BME280;15455;53.376;-6.262;2023-08-07T12:40:51;101634.50;;;18.57;100.00
28167;BME280;15455;53.376;-6.262;2023-08-07T12:43:36;101632.38;;;18.74;100.00
28167;BME280;15455;53.376;-6.262;2023-08-07T12:46:22;101628.81;;;18.75;100.00
28167;BME280;15455;53.376;-6.262;2023-08-07T12:49:11;101626.91;;;18.82;100.00
28167;BME280;15455;53.376;-6.262;2023-08-07T12:51:56;101623.19;;;18.92;100.00
28167;BME280;15455;53.376;-6.262;2023-08-07T12:54:43;101622.28;;;18.92;100.00
28167;BME280;15455;53.376;-6.262;2023-08-07T12:57:28;101615.41;;;18.83;100.00
28167;BME280;15455;53.376;-6.262;2023-08-07T13:00:15;101610.09;;;18.85;100.00
28167;BME280;15455;53.376;-6.262;2023-08-07T13:03:00;101621.06;;;18.68;100.00
28167;BME280;15455;53.376;-6.262;2023-08-07T13:05:46;101623.97;;;18.55;100.00
28167;BME280;15455;53.376;-6.262;2023-08-07T13:08:31;101616.16;;;18.51;100.00
28167;BME280;15455;53.376;-6.262;2023-08-07T13:11:18;101616.38;;;18.42;100.00
28167;BME280;15455;53.376;-6.262;2023-08-07T13:14:04;101617.44;;;18.31;100.00
28167;BME280;15455;53.376;-6.262;2023-08-07T13:16:49;101616.53;;;18.32;100.00
28167;BME280;15455;53.376;-6.262;2023-08-07T13:19:36;101613.88;;;18.32;100.00
28167;BME280;15455;53.376;-6.262;2023-08-07T13:22:21;101619.94;;;18.39;100.00
28167;BME280;15455;53.376;-6.262;2023-08-07T13:25:08;101618.16;;;18.39;100.00
28167;BME280;15455;53.376;-6.262;2023-08-07T13:27:54;101621.53;;;18.46;100.00
28167;BME280;15455;53.376;-6.262;2023-08-07T13:30:39;101613.66;;;18.45;100.00
28167;BME280;15455;53.376;-6.262;2023-08-07T13:33:25;101609.50;;;18.31;100.00
28167;BME280;15455;53.376;-6.262;2023-08-07T13:36:11;101608.69;;;18.29;100.00
28167;BME280;15455;53.376;-6.262;2023-08-07T13:38:56;101614.84;;;18.28;100.00
28167;BME280;15455;53.376;-6.262;2023-08-07T13:41:42;101611.41;;;18.25;100.00
28167;BME280;15455;53.376;-6.262;2023-08-07T13:44:27;101618.28;;;18.33;100.00
28167;BME280;15455;53.376;-6.262;2023-08-07T13:47:13;101612.47;;;18.58;100.00
28167;BME280;15455;53.376;-6.262;2023-08-07T13:49:59;101613.84;;;18.74;100.00
28167;BME280;15455;53.376;-6.262;2023-08-07T13:52:44;101612.06;;;18.77;100.00
28167;BME280;15455;53.376;-6.262;2023-08-07T13:55:36;101608.53;;;18.76;100.00
28167;BME280;15455;53.376;-6.262;2023-08-07T13:58:21;101605.53;;;18.93;100.00
28167;BME280;15455;53.376;-6.262;2023-08-07T14:01:07;101596.78;;;18.91;100.00
28167;BME280;15455;53.376;-6.262;2023-08-07T14:03:53;101597.41;;;19.02;100.00
28167;BME280;15455;53.376;-6.262;2023-08-07T14:06:39;101596.97;;;19.19;100.00
28167;BME280;15455;53.376;-6.262;2023-08-07T14:09:26;101604.66;;;19.30;100.00
28167;BME280;15455;53.376;-6.262;2023-08-07T14:12:11;101593.94;;;19.35;100.00